createdAt,value
2022-09-12T00:02:10.945Z,0.38
2022-09-12T00:04:38.067Z,0.40
2022-09-12T00:07:05.170Z,0.60
2022-09-12T00:09:32.608Z,0.50
2022-09-12T00:11:59.976Z,0.47
2022-09-12T00:14:27.047Z,0.57
2022-09-12T00:16:59.502Z,0.52
2022-09-12T00:19:27.951Z,0.77
2022-09-12T00:21:55.219Z,0.35
2022-09-12T00:24:23.088Z,0.55
2022-09-12T00:26:50.449Z,0.50
2022-09-12T00:29:20.496Z,0.40
2022-09-12T00:31:48.146Z,0.57
2022-09-12T00:34:15.481Z,0.50
2022-09-12T00:36:42.841Z,0.40
2022-09-12T00:39:14.477Z,0.40
2022-09-12T00:41:41.803Z,0.52
2022-09-12T00:44:24.319Z,0.50
2022-09-12T00:47:02.357Z,0.60
2022-09-12T00:49:38.295Z,0.50
2022-09-12T00:52:13.362Z,0.50
2022-09-12T00:54:52.348Z,0.47
2022-09-12T00:57:23.681Z,0.60
2022-09-12T01:02:21.655Z,0.70
2022-09-12T01:04:50.036Z,0.60
2022-09-12T01:07:17.121Z,0.50
2022-09-12T01:09:46.194Z,0.60
2022-09-12T01:12:15.253Z,0.50
2022-09-12T01:14:42.676Z,0.40
2022-09-12T01:17:13.806Z,0.60
2022-09-12T01:22:50.122Z,0.57
2022-09-12T01:26:07.554Z,0.70
2022-09-12T01:29:02.431Z,0.43
2022-09-12T01:31:51.578Z,0.57
2022-09-12T01:34:28.357Z,0.63
2022-09-12T01:37:19.996Z,0.75
2022-09-12T01:43:04.345Z,0.77
2022-09-12T01:45:47.329Z,0.50
2022-09-12T01:48:23.491Z,0.50
2022-09-12T01:50:57.397Z,0.60
2022-09-12T01:53:29.906Z,0.60
2022-09-12T01:56:22.281Z,0.65
2022-09-12T01:58:59.776Z,0.40
2022-09-12T02:01:29.866Z,0.50
2022-09-12T02:04:41.336Z,0.50
2022-09-12T02:07:18.532Z,0.60
2022-09-12T02:09:50.975Z,0.60
2022-09-12T02:12:25.093Z,0.60
2022-09-12T02:14:58.517Z,0.60
2022-09-12T02:17:27.308Z,0.82
2022-09-12T02:20:09.166Z,1.30
2022-09-12T02:22:38.938Z,0.60
2022-09-12T02:25:09.216Z,0.60
2022-09-12T02:27:46.931Z,0.60
2022-09-12T02:30:16.644Z,0.70
2022-09-12T02:32:46.864Z,0.52
2022-09-12T02:35:23.319Z,0.60
2022-09-12T02:37:56.641Z,0.73
2022-09-12T02:40:24.314Z,0.90
2022-09-12T02:42:52.322Z,0.60
2022-09-12T02:45:19.734Z,0.60
2022-09-12T02:47:56.390Z,0.52
2022-09-12T02:50:24.317Z,0.70
2022-09-12T02:52:53.902Z,0.60
2022-09-12T02:55:21.513Z,0.60
2022-09-12T02:57:48.880Z,0.70
2022-09-12T03:00:16.297Z,0.63
2022-09-12T03:02:58.702Z,0.70
2022-09-12T03:05:40.423Z,0.52
2022-09-12T03:08:21.310Z,0.90
2022-09-12T03:10:51.988Z,0.68
2022-09-12T03:13:25.311Z,0.60
2022-09-12T03:16:23.543Z,0.50
2022-09-12T03:19:20.043Z,0.60
2022-09-12T03:22:20.240Z,0.80
2022-09-12T03:25:14.376Z,0.60
2022-09-12T03:27:53.230Z,0.70
2022-09-12T03:30:20.501Z,0.68
2022-09-12T03:32:53.263Z,0.50
2022-09-12T03:35:23.848Z,0.70
2022-09-12T03:37:53.011Z,0.70
2022-09-12T03:40:20.791Z,0.63
2022-09-12T03:42:48.110Z,0.68
2022-09-12T03:45:16.760Z,0.70
2022-09-12T03:47:44.044Z,0.68
2022-09-12T03:50:11.290Z,0.70
2022-09-12T03:52:38.687Z,0.70
2022-09-12T03:55:06.547Z,0.80
2022-09-12T03:57:34.218Z,0.80
2022-09-12T04:00:02.293Z,0.70
2022-09-12T04:02:40.150Z,0.68
2022-09-12T04:05:08.143Z,0.75
2022-09-12T04:07:35.245Z,0.93
2022-09-12T04:10:02.727Z,0.70
2022-09-12T04:12:30.572Z,0.60
2022-09-12T04:14:57.581Z,0.80
2022-09-12T04:17:25.048Z,0.75
2022-09-12T04:19:52.386Z,0.70
2022-09-12T04:22:19.455Z,0.75
2022-09-12T04:24:47.110Z,0.80
2022-09-12T04:27:14.256Z,0.88
2022-09-12T04:29:41.559Z,0.70
2022-09-12T04:32:08.854Z,0.70
2022-09-12T04:34:36.220Z,0.68
2022-09-12T04:37:03.725Z,0.70
2022-09-12T04:39:31.182Z,0.60
2022-09-12T04:41:58.505Z,0.70
2022-09-12T04:44:25.944Z,0.90
2022-09-12T04:46:53.068Z,0.82
2022-09-12T04:49:20.319Z,0.65
2022-09-12T04:51:47.657Z,1.00
2022-09-12T04:54:19.555Z,0.80
2022-09-12T04:56:49.668Z,0.60
2022-09-12T04:59:22.157Z,0.60
2022-09-12T05:01:49.837Z,0.82
2022-09-12T05:04:21.813Z,0.80
2022-09-12T05:06:49.093Z,0.65
2022-09-12T05:09:16.622Z,0.50
2022-09-12T05:12:05.046Z,0.73
2022-09-12T05:14:47.140Z,0.80
2022-09-12T05:17:14.531Z,0.55
2022-09-12T05:19:41.998Z,0.70
2022-09-12T05:22:09.866Z,0.60
2022-09-12T05:24:53.986Z,0.60
2022-09-12T05:27:21.412Z,0.63
2022-09-12T05:29:48.530Z,0.90
2022-09-12T05:32:15.896Z,0.63
2022-09-12T05:34:43.041Z,0.70
2022-09-12T05:37:10.556Z,0.75
2022-09-12T05:39:37.980Z,0.80
2022-09-12T05:42:06.222Z,0.57
2022-09-12T05:44:34.728Z,0.70
2022-09-12T05:47:01.981Z,0.60
2022-09-12T05:49:30.073Z,0.70
2022-09-12T05:51:57.395Z,0.63
2022-09-12T05:54:28.327Z,0.65
2022-09-12T05:56:58.394Z,0.80
2022-09-12T05:59:25.690Z,0.63
2022-09-12T06:01:52.871Z,0.60
2022-09-12T06:04:20.639Z,0.70
2022-09-12T06:06:48.944Z,0.65
2022-09-12T06:09:17.135Z,0.70
2022-09-12T06:11:45.366Z,0.70
2022-09-12T06:14:15.289Z,0.60
2022-09-12T06:16:42.995Z,1.10
2022-09-12T06:19:19.511Z,0.70
2022-09-12T06:21:49.864Z,0.60
2022-09-12T06:24:19.807Z,0.77
2022-09-12T06:26:48.305Z,0.60
2022-09-12T06:29:16.934Z,0.77
2022-09-12T06:31:44.848Z,0.70
2022-09-12T06:34:16.086Z,0.57
2022-09-12T06:36:47.009Z,0.75
2022-09-12T06:39:18.459Z,0.70
2022-09-12T06:41:48.157Z,0.63
2022-09-12T06:44:22.288Z,0.70
2022-09-12T06:46:50.479Z,0.63
2022-09-12T06:49:18.110Z,0.52
2022-09-12T06:51:45.311Z,0.90
2022-09-12T06:54:17.442Z,0.80
2022-09-12T06:56:45.425Z,0.70
2022-09-12T06:59:12.885Z,0.70
2022-09-12T07:01:42.056Z,0.52
2022-09-12T07:04:10.054Z,0.80
2022-09-12T07:06:40.873Z,0.60
2022-09-12T07:09:11.107Z,0.52
2022-09-12T07:11:40.267Z,0.50
2022-09-12T07:14:09.303Z,0.60
2022-09-12T07:16:37.040Z,0.55
2022-09-12T07:19:05.867Z,0.57
2022-09-12T07:21:33.201Z,0.50
2022-09-12T07:24:00.572Z,0.77
2022-09-12T07:26:29.310Z,0.50
2022-09-12T07:29:18.615Z,0.73
2022-09-12T07:31:47.060Z,0.50
2022-09-12T07:34:14.645Z,0.43
2022-09-12T07:36:43.248Z,0.52
2022-09-12T07:39:11.485Z,0.47
2022-09-12T07:41:38.946Z,0.50
2022-09-12T07:44:09.078Z,0.50
2022-09-12T07:46:36.343Z,0.40
2022-09-12T07:49:03.858Z,0.60
2022-09-12T07:51:32.093Z,0.95
2022-09-12T07:54:00.421Z,0.40
2022-09-12T07:56:30.665Z,0.43
2022-09-12T07:58:59.691Z,0.43
2022-09-12T08:01:27.730Z,0.40
2022-09-12T08:04:00.103Z,0.52
2022-09-12T08:06:30.394Z,0.40
2022-09-12T08:08:59.367Z,0.35
2022-09-12T08:11:28.851Z,0.60
2022-09-12T08:13:57.721Z,0.50
2022-09-12T08:16:31.351Z,0.60
2022-09-12T08:19:01.456Z,0.43
2022-09-12T08:21:31.570Z,0.40
2022-09-12T08:24:04.610Z,0.40
2022-09-12T08:26:33.255Z,0.70
2022-09-12T08:29:01.116Z,0.40
2022-09-12T08:31:30.836Z,0.52
2022-09-12T08:34:01.195Z,0.57
2022-09-12T08:36:29.745Z,0.50
2022-09-12T08:39:03.136Z,0.52
2022-09-12T08:41:42.393Z,0.45
2022-09-12T08:44:32.169Z,0.40
2022-09-12T08:47:02.818Z,0.50
2022-09-12T08:49:35.535Z,0.40
2022-09-12T08:52:17.591Z,0.32
2022-09-12T08:54:48.555Z,0.40
2022-09-12T08:59:48.623Z,0.40
2022-09-12T09:02:31.384Z,0.63
2022-09-12T09:05:13.814Z,0.52
2022-09-12T09:07:50.663Z,0.50
2022-09-12T09:10:53.966Z,0.57
2022-09-12T09:13:45.988Z,0.40
2022-09-12T09:16:22.195Z,0.60
2022-09-12T09:18:50.915Z,0.40
2022-09-12T09:21:41.583Z,0.47
2022-09-12T09:24:16.971Z,0.40
2022-09-12T09:27:00.851Z,0.40
2022-09-12T09:29:41.322Z,0.30
2022-09-12T09:32:19.318Z,0.40
2022-09-12T09:34:47.006Z,0.45
2022-09-12T09:37:29.466Z,0.30
2022-09-12T09:39:59.757Z,0.40
2022-09-12T09:42:57.918Z,0.60
2022-09-12T09:45:29.264Z,0.52
2022-09-12T09:48:15.839Z,0.63
2022-09-12T09:50:49.428Z,0.50
2022-09-12T09:53:38.693Z,0.40
2022-09-12T09:56:12.040Z,0.60
2022-09-12T09:58:40.567Z,0.20
2022-09-12T10:01:18.187Z,0.30
2022-09-12T10:04:04.041Z,0.40
2022-09-12T10:06:38.113Z,0.32
2022-09-12T10:09:28.048Z,0.22
2022-09-12T10:11:57.230Z,0.40
2022-09-12T10:14:31.651Z,0.43
2022-09-12T10:16:59.727Z,0.38
2022-09-12T10:19:40.000Z,0.40
2022-09-12T10:22:07.719Z,0.40
2022-09-12T10:24:41.399Z,0.40
2022-09-12T10:27:15.972Z,0.40
2022-09-12T10:29:54.421Z,0.45
2022-09-12T10:32:36.249Z,0.50
2022-09-12T10:35:09.227Z,0.30
2022-09-12T10:37:40.197Z,0.32
2022-09-12T10:40:22.603Z,0.40
2022-09-12T10:42:55.517Z,0.45
2022-09-12T10:45:32.886Z,0.70
2022-09-12T10:48:20.217Z,0.40
2022-09-12T10:50:47.483Z,0.50
2022-09-12T10:53:17.078Z,0.55
2022-09-12T10:55:59.337Z,0.40
2022-09-12T10:58:48.414Z,0.50
2022-09-12T11:01:21.484Z,0.30
2022-09-12T11:04:07.014Z,0.45
2022-09-12T11:07:01.113Z,0.50
2022-09-12T11:09:48.213Z,0.35
2022-09-12T11:12:47.505Z,0.30
2022-09-12T11:15:52.301Z,0.40
2022-09-12T11:18:45.370Z,0.40
2022-09-12T11:21:21.865Z,0.40
2022-09-12T11:24:25.911Z,0.35
2022-09-12T11:27:22.961Z,0.40
2022-09-12T11:29:58.189Z,0.50
2022-09-12T11:33:01.540Z,0.40
2022-09-12T11:35:30.638Z,0.50
2022-09-12T11:38:33.797Z,0.30
2022-09-12T11:41:11.028Z,0.40
2022-09-12T11:44:03.895Z,0.40
2022-09-12T11:46:38.164Z,0.30
2022-09-12T11:49:14.188Z,0.40
2022-09-12T11:51:45.547Z,0.40
2022-09-12T11:54:34.479Z,0.30
2022-09-12T11:57:12.484Z,0.43
2022-09-12T11:59:54.584Z,0.40
2022-09-12T12:02:40.566Z,0.30
2022-09-12T12:05:22.735Z,0.43
2022-09-12T12:07:59.959Z,0.30
2022-09-12T12:10:48.860Z,0.30
2022-09-12T12:13:26.990Z,0.73
2022-09-12T12:16:04.915Z,0.52
2022-09-12T12:18:35.796Z,0.40
2022-09-12T12:21:34.166Z,0.50
2022-09-12T12:24:07.730Z,0.65
2022-09-12T12:26:41.047Z,0.57
2022-09-12T12:29:31.528Z,0.60
2022-09-12T12:31:58.946Z,0.50
2022-09-12T12:34:36.083Z,0.70
2022-09-12T12:37:21.409Z,0.80
2022-09-12T12:40:04.973Z,0.70
2022-09-12T12:42:35.017Z,0.73
2022-09-12T12:45:04.644Z,0.73
2022-09-12T12:47:40.756Z,0.68
2022-09-12T12:50:21.116Z,0.55
2022-09-12T12:53:07.362Z,0.63
2022-09-12T12:55:47.675Z,0.52
2022-09-12T12:58:30.507Z,0.70
2022-09-12T13:01:10.406Z,0.80
2022-09-12T13:03:43.966Z,0.70
2022-09-12T13:06:42.699Z,0.80
2022-09-12T13:09:39.882Z,1.20
2022-09-12T13:12:13.297Z,0.70
2022-09-12T13:14:43.917Z,0.85
2022-09-12T13:17:41.634Z,0.93
2022-09-12T13:20:30.917Z,0.70
2022-09-12T13:22:58.479Z,0.65
2022-09-12T13:25:33.743Z,0.70
2022-09-12T13:28:20.698Z,0.63
2022-09-12T13:31:22.915Z,0.70
2022-09-12T13:33:56.273Z,0.55
2022-09-12T13:36:30.643Z,0.70
2022-09-12T13:39:14.267Z,0.50
2022-09-12T13:42:13.820Z,0.70
2022-09-12T13:44:51.899Z,0.50
2022-09-12T13:47:47.106Z,0.60
2022-09-12T13:50:41.922Z,0.60
2022-09-12T13:53:20.092Z,0.50
2022-09-12T13:55:52.158Z,0.50
2022-09-12T13:58:28.548Z,0.50
2022-09-12T14:01:06.914Z,0.50
2022-09-12T14:04:11.845Z,0.50
2022-09-12T14:06:49.787Z,0.85
2022-09-12T14:09:25.233Z,0.70
2022-09-12T14:11:53.959Z,0.75
2022-09-12T14:14:51.917Z,0.50
2022-09-12T14:17:29.522Z,0.50
2022-09-12T14:20:00.256Z,0.50
2022-09-12T14:22:30.187Z,0.40
2022-09-12T14:24:59.690Z,0.60
2022-09-12T14:27:54.785Z,0.60
2022-09-12T14:30:30.948Z,0.57
2022-09-12T14:33:22.093Z,1.10
2022-09-12T14:35:52.317Z,0.50
2022-09-12T14:38:35.309Z,0.60
2022-09-12T14:41:08.990Z,0.40
2022-09-12T14:43:40.926Z,0.60
2022-09-12T14:46:33.188Z,0.73
2022-09-12T14:49:14.036Z,0.50
2022-09-12T14:51:55.257Z,0.60
2022-09-12T14:54:28.667Z,0.80
2022-09-12T14:57:03.234Z,0.80
2022-09-12T14:59:41.216Z,0.60
2022-09-12T15:02:22.604Z,0.80
2022-09-12T15:05:11.021Z,0.85
2022-09-12T15:07:41.727Z,0.70
2022-09-12T15:10:18.238Z,0.60
2022-09-12T15:12:46.828Z,0.80
2022-09-12T15:15:21.295Z,0.80
2022-09-12T15:17:49.697Z,0.82
2022-09-12T15:20:21.962Z,0.80
2022-09-12T15:22:50.510Z,1.10
2022-09-12T15:25:18.266Z,1.40
2022-09-12T15:27:47.105Z,1.17
2022-09-12T15:30:14.638Z,1.00
2022-09-12T15:32:44.481Z,1.10
2022-09-12T15:35:26.053Z,1.17
2022-09-12T15:37:53.520Z,1.08
2022-09-12T15:40:21.962Z,0.90
2022-09-12T15:42:49.727Z,1.10
2022-09-12T15:45:23.865Z,1.00
2022-09-12T15:47:54.959Z,1.08
2022-09-12T15:50:28.660Z,1.13
2022-09-12T15:52:57.947Z,1.10
2022-09-12T15:55:29.409Z,1.83
2022-09-12T15:57:57.256Z,1.40
2022-09-12T16:00:24.655Z,1.52
2022-09-12T16:02:54.117Z,1.20
2022-09-12T16:05:25.441Z,1.30
2022-09-12T16:07:55.023Z,1.73
2022-09-12T16:10:25.907Z,1.50
2022-09-12T16:12:54.870Z,1.50
2022-09-12T16:15:24.716Z,1.80
2022-09-12T16:17:52.678Z,1.48
2022-09-12T16:20:21.593Z,1.83
2022-09-12T16:22:48.930Z,1.60
2022-09-12T16:25:17.496Z,1.92
2022-09-12T16:27:45.170Z,1.75
2022-09-12T16:30:13.299Z,1.42
2022-09-12T16:32:41.291Z,1.50
2022-09-12T16:35:09.860Z,1.48
2022-09-12T16:37:37.276Z,1.60
2022-09-12T16:40:05.634Z,2.00
2022-09-12T16:42:37.433Z,1.73
2022-09-12T16:45:09.661Z,1.63
2022-09-12T16:47:37.052Z,1.65
2022-09-12T16:50:04.735Z,1.58
2022-09-12T16:52:31.937Z,1.30
2022-09-12T16:54:59.021Z,1.40
2022-09-12T16:57:26.248Z,1.60
2022-09-12T16:59:53.722Z,1.98
2022-09-12T17:02:21.086Z,1.73
2022-09-12T17:04:48.911Z,2.10
2022-09-12T17:07:16.478Z,1.58
2022-09-12T17:09:47.425Z,2.08
2022-09-12T17:12:15.126Z,2.25
2022-09-12T17:14:42.334Z,2.20
2022-09-12T17:17:09.622Z,2.03
2022-09-12T17:19:37.029Z,2.40
2022-09-12T17:22:04.917Z,2.10
2022-09-12T17:24:33.077Z,2.17
2022-09-12T17:27:00.288Z,2.72
2022-09-12T17:29:27.619Z,2.38
2022-09-12T17:31:55.774Z,2.45
2022-09-12T17:34:23.509Z,2.22
2022-09-12T17:36:50.970Z,2.72
2022-09-12T17:39:18.203Z,2.10
2022-09-12T17:41:46.266Z,2.42
2022-09-12T17:44:15.343Z,2.38
2022-09-12T17:46:43.825Z,2.03
2022-09-12T17:49:19.280Z,2.28
2022-09-12T17:51:52.045Z,2.33
2022-09-12T17:54:20.955Z,2.10
2022-09-12T17:56:51.789Z,2.35
2022-09-12T17:59:25.149Z,2.00
2022-09-12T18:02:11.339Z,2.40
2022-09-12T18:04:40.721Z,2.40
2022-09-12T18:07:08.802Z,2.25
2022-09-12T18:09:39.252Z,2.10
2022-09-12T18:12:07.574Z,2.30
2022-09-12T18:14:35.247Z,2.17
2022-09-12T18:17:02.510Z,1.95
2022-09-12T18:19:29.955Z,2.38
2022-09-12T18:22:00.747Z,2.25
2022-09-12T18:27:14.412Z,2.05
2022-09-12T18:29:41.846Z,2.00
2022-09-12T18:32:18.625Z,1.80
2022-09-12T18:34:45.910Z,2.10
2022-09-12T18:37:13.577Z,1.80
2022-09-12T18:39:41.968Z,2.10
2022-09-12T18:42:09.256Z,1.75
2022-09-12T18:44:36.332Z,1.77
2022-09-12T18:47:04.402Z,2.13
2022-09-12T18:49:31.674Z,2.15
2022-09-12T18:51:58.640Z,1.70
2022-09-12T18:54:29.971Z,1.75
2022-09-12T18:56:59.349Z,1.40
2022-09-12T18:59:29.709Z,1.98
2022-09-12T19:01:57.063Z,1.70
2022-09-12T19:04:35.483Z,1.60
2022-09-12T19:07:07.688Z,1.30
2022-09-12T19:09:34.812Z,1.50
2022-09-12T19:12:02.142Z,1.60
2022-09-12T19:14:29.379Z,1.48
2022-09-12T19:16:57.682Z,1.30
2022-09-12T19:19:25.236Z,1.60
2022-09-12T19:21:55.789Z,1.20
2022-09-12T19:24:28.088Z,1.17
2022-09-12T19:26:56.876Z,1.25
2022-09-12T19:29:24.137Z,1.20
2022-09-12T19:31:51.449Z,1.40
2022-09-12T19:34:21.042Z,1.02
2022-09-12T19:36:48.484Z,1.20
2022-09-12T19:39:17.775Z,1.02
2022-09-12T19:41:45.705Z,1.20
2022-09-12T19:44:19.357Z,1.10
2022-09-12T19:46:57.648Z,1.20
2022-09-12T19:49:28.078Z,0.98
2022-09-12T19:52:00.595Z,1.00
2022-09-12T19:54:27.700Z,1.07
2022-09-12T19:56:55.958Z,0.85
2022-09-12T19:59:24.036Z,1.40
2022-09-12T20:01:51.303Z,1.17
2022-09-12T20:04:18.621Z,1.10
2022-09-12T20:06:45.799Z,1.52
2022-09-12T20:09:24.995Z,1.17
2022-09-12T20:11:55.485Z,1.20
2022-09-12T20:14:26.630Z,1.47
2022-09-12T20:16:55.540Z,1.35
2022-09-12T20:19:23.524Z,1.27
2022-09-12T20:21:53.310Z,1.00
2022-09-12T20:24:20.655Z,1.08
2022-09-12T20:26:47.837Z,1.20
2022-09-12T20:29:14.950Z,1.30
2022-09-12T20:31:42.672Z,1.10
2022-09-12T20:34:20.508Z,1.17
2022-09-12T20:36:49.022Z,2.65
2022-09-12T20:39:19.968Z,1.10
2022-09-12T20:41:47.974Z,1.15
2022-09-12T20:44:18.952Z,1.05
2022-09-12T20:46:46.877Z,1.00
2022-09-12T20:49:14.057Z,1.08
2022-09-12T20:51:41.519Z,1.30
2022-09-12T20:54:08.742Z,1.08
2022-09-12T20:56:48.639Z,1.38
2022-09-12T20:59:17.194Z,1.10
2022-09-12T21:01:46.119Z,1.00
2022-09-12T21:04:15.348Z,1.23
2022-09-12T21:06:42.635Z,1.30
2022-09-12T21:09:09.993Z,0.90
2022-09-12T21:11:40.604Z,0.93
2022-09-12T21:14:08.105Z,1.00
2022-09-12T21:16:38.753Z,1.20
2022-09-12T21:19:07.965Z,1.30
2022-09-12T21:21:38.390Z,1.20
2022-09-12T21:24:09.500Z,1.23
2022-09-12T21:26:38.462Z,1.10
2022-09-12T21:29:06.367Z,0.93
2022-09-12T21:31:49.057Z,1.17
2022-09-12T21:34:16.133Z,0.90
2022-09-12T21:36:43.478Z,1.20
2022-09-12T21:39:10.823Z,1.20
2022-09-12T21:41:37.995Z,1.10
2022-09-12T21:44:05.401Z,1.20
2022-09-12T21:46:32.967Z,1.20
2022-09-12T21:49:01.635Z,1.20
2022-09-12T21:51:29.246Z,1.10
2022-09-12T21:53:57.621Z,1.23
2022-09-12T21:56:24.861Z,1.27
2022-09-12T21:58:52.005Z,1.30
2022-09-12T22:01:19.479Z,1.13
2022-09-12T22:03:46.688Z,1.10
2022-09-12T22:06:14.418Z,1.10
2022-09-12T22:08:41.938Z,1.00
2022-09-12T22:11:11.043Z,1.10
2022-09-12T22:13:43.831Z,0.90
2022-09-12T22:16:15.239Z,0.98
2022-09-12T22:21:13.095Z,0.95
2022-09-12T22:23:59.328Z,1.30
2022-09-12T22:26:29.574Z,1.15
2022-09-12T22:28:57.273Z,1.45
2022-09-12T22:31:24.531Z,1.20
2022-09-12T22:33:54.341Z,1.10
2022-09-12T22:36:30.492Z,1.10
2022-09-12T22:39:00.657Z,1.33
2022-09-12T22:41:32.101Z,1.17
2022-09-12T22:44:00.021Z,1.10
2022-09-12T22:46:27.732Z,1.25
2022-09-12T22:48:55.933Z,1.23
2022-09-12T22:51:23.451Z,1.30
2022-09-12T22:53:51.578Z,1.15
2022-09-12T22:56:19.160Z,0.95
2022-09-12T22:58:46.269Z,1.35
2022-09-12T23:01:15.904Z,1.30
2022-09-12T23:03:44.422Z,1.33
2022-09-12T23:06:12.489Z,1.40
2022-09-12T23:08:46.001Z,1.30
2022-09-12T23:11:16.728Z,1.20
2022-09-12T23:13:46.849Z,1.60
2022-09-12T23:16:25.781Z,1.35
2022-09-12T23:18:53.087Z,1.08
2022-09-12T23:21:22.115Z,1.45
2022-09-12T23:23:49.888Z,1.23
2022-09-12T23:26:28.326Z,1.48
2022-09-12T23:29:02.342Z,1.30
2022-09-12T23:31:32.848Z,1.23
2022-09-12T23:34:06.210Z,1.40
2022-09-12T23:36:34.295Z,1.63
2022-09-12T23:39:02.190Z,1.42
2022-09-12T23:41:30.188Z,1.23
2022-09-12T23:43:57.896Z,1.52
2022-09-12T23:46:25.184Z,1.20
2022-09-12T23:48:56.131Z,1.58
2022-09-12T23:51:24.174Z,1.40
2022-09-12T23:53:54.163Z,1.40
2022-09-12T23:56:22.365Z,1.30
2022-09-12T23:58:49.824Z,1.50
